createdAt,value
2018-12-27T00:00:30.191Z,98247.08
2018-12-27T00:05:44.180Z,98243.05
2018-12-27T00:16:34.603Z,98244.08
2018-12-27T00:21:48.585Z,98240.77
2018-12-27T00:26:56.862Z,98241.53
2018-12-27T00:32:10.963Z,98246.83
2018-12-27T00:37:20.006Z,98251.46
2018-12-27T00:42:27.593Z,98248.46
2018-12-27T00:47:41.706Z,98247.48
2018-12-27T00:52:57.539Z,98237.98
2018-12-27T00:58:06.481Z,98232.16
2018-12-27T01:03:20.617Z,98225.00
2018-12-27T01:08:28.673Z,98219.92
2018-12-27T01:19:44.145Z,98211.63
2018-12-27T01:24:51.512Z,98210.72
2018-12-27T01:30:05.635Z,98217.42
2018-12-27T01:35:13.915Z,98216.20
2018-12-27T01:40:28.031Z,98210.33
2018-12-27T01:45:36.545Z,98212.63
2018-12-27T01:57:26.689Z,98199.88
2018-12-27T02:02:34.646Z,98192.34
2018-12-27T02:07:48.796Z,98200.53
2018-12-27T02:12:56.835Z,98209.06
2018-12-27T02:18:10.987Z,98196.94
2018-12-27T02:23:17.959Z,98204.83
2018-12-27T02:28:32.090Z,98193.64
2018-12-27T02:34:04.200Z,98188.91
2018-12-27T02:45:44.242Z,98175.90
2018-12-27T02:50:58.393Z,98180.48
2018-12-27T02:56:11.802Z,98171.55
2018-12-27T03:01:18.484Z,98160.45
2018-12-27T03:06:32.600Z,98152.38
2018-12-27T03:11:40.597Z,98141.01
2018-12-27T03:16:54.828Z,98136.33
2018-12-27T03:22:03.179Z,98135.84
2018-12-27T03:27:17.293Z,98125.83
2018-12-27T03:32:24.982Z,98110.07
2018-12-27T03:37:39.071Z,98098.29
2018-12-27T03:42:52.117Z,98101.00
2018-12-27T03:47:59.559Z,98096.39
2018-12-27T03:52:54.371Z,98095.40
2018-12-27T03:58:08.474Z,98099.11
2018-12-27T04:03:17.198Z,98081.91
2018-12-27T04:20:35.635Z,98072.83
2018-12-27T04:25:51.389Z,98075.36
2018-12-27T04:31:05.812Z,98075.41
2018-12-27T04:36:14.409Z,98080.63
2018-12-27T04:41:29.366Z,98084.08
2018-12-27T04:46:43.355Z,98085.09
2018-12-27T04:51:50.457Z,98090.37
2018-12-27T04:57:04.446Z,98088.47
2018-12-27T05:02:20.905Z,98091.39
2018-12-27T05:07:15.515Z,98085.75
2018-12-27T05:12:29.527Z,98084.16
2018-12-27T05:17:24.153Z,98076.39
2018-12-27T05:22:18.790Z,98080.44
2018-12-27T05:27:32.777Z,98070.84
2018-12-27T05:32:40.928Z,98073.50
2018-12-27T05:37:54.974Z,98071.13
2018-12-27T05:43:02.409Z,98064.22
2018-12-27T05:48:16.404Z,98067.12
2018-12-27T05:58:40.747Z,98078.34
2018-12-27T06:03:35.383Z,98086.96
2018-12-27T06:08:49.343Z,98088.56
2018-12-27T06:20:22.910Z,98094.39
2018-12-27T06:25:30.973Z,98088.22
2018-12-27T06:30:25.601Z,98097.59
2018-12-27T06:41:53.832Z,98093.09
2018-12-27T06:47:02.273Z,98087.18
2018-12-27T06:52:16.327Z,98095.67
2018-12-27T06:57:10.973Z,98102.72
2018-12-27T07:02:24.968Z,98107.05
2018-12-27T07:07:38.986Z,98106.38
2018-12-27T07:12:47.088Z,98106.86
2018-12-27T07:18:01.068Z,98104.39
2018-12-27T07:23:09.047Z,98110.47
2018-12-27T07:28:23.033Z,98106.17
2018-12-27T07:33:39.357Z,98101.75
2018-12-27T07:38:33.978Z,98100.63
2018-12-27T07:49:04.611Z,98109.56
2018-12-27T07:54:18.657Z,98112.34
2018-12-27T07:59:32.684Z,98105.76
2018-12-27T08:04:39.509Z,98104.42
2018-12-27T08:09:53.491Z,98099.20
2018-12-27T08:15:01.321Z,98098.48
2018-12-27T08:20:15.299Z,98104.48
2018-12-27T08:25:23.065Z,98099.93
2018-12-27T08:31:24.071Z,98110.02
2018-12-27T08:36:38.070Z,98114.71
2018-12-27T08:42:09.867Z,98112.12
2018-12-27T08:47:17.688Z,98106.47
2018-12-27T08:52:31.701Z,98107.96
2018-12-27T08:57:44.869Z,98102.48
2018-12-27T09:02:52.919Z,98099.75
2018-12-27T09:08:06.919Z,98097.77
2018-12-27T09:13:14.683Z,98098.80
2018-12-27T09:18:28.678Z,98095.23
2018-12-27T09:23:37.961Z,98094.28
2018-12-27T09:28:32.594Z,98111.04
2018-12-27T09:33:46.581Z,98101.94
2018-12-27T09:44:31.516Z,98107.16
2018-12-27T09:49:26.136Z,98102.05
2018-12-27T09:54:40.117Z,98097.31
2018-12-27T09:59:47.666Z,98099.41
2018-12-27T10:05:22.394Z,98091.25
2018-12-27T10:10:29.027Z,98085.94
2018-12-27T10:16:26.920Z,98081.70
2018-12-27T10:21:41.005Z,98074.13
2018-12-27T10:26:48.398Z,98073.52
2018-12-27T10:32:02.501Z,98072.78
2018-12-27T10:37:16.916Z,98068.77
2018-12-27T10:42:24.215Z,98067.08
2018-12-27T10:47:32.424Z,98062.02
2018-12-27T10:52:40.382Z,98055.61
2018-12-27T10:57:54.367Z,98042.68
2018-12-27T11:03:01.898Z,98036.80
2018-12-27T11:08:15.878Z,98031.48
2018-12-27T11:13:24.531Z,98023.70
2018-12-27T11:18:19.290Z,98016.70
2018-12-27T11:23:13.891Z,98002.84
2018-12-27T11:39:54.631Z,97975.92
2018-12-27T11:45:07.384Z,97969.98
2018-12-27T11:50:15.682Z,97965.51
2018-12-27T11:55:29.667Z,97961.89
2018-12-27T12:00:24.401Z,97959.91
2018-12-27T12:05:38.467Z,97942.11
2018-12-27T12:10:52.453Z,97937.47
2018-12-27T12:16:06.263Z,97934.50
2018-12-27T12:21:00.900Z,97923.94
2018-12-27T12:26:14.898Z,97924.47
2018-12-27T12:31:23.259Z,97922.14
2018-12-27T12:36:37.310Z,97921.99
2018-12-27T12:41:44.983Z,97916.41
2018-12-27T12:46:53.489Z,97912.91
2018-12-27T12:52:06.898Z,97906.78
2018-12-27T12:57:14.574Z,97904.08
2018-12-27T13:02:31.346Z,97893.59
2018-12-27T13:13:21.912Z,97894.00
2018-12-27T13:18:54.247Z,97887.34
2018-12-27T13:24:02.657Z,97880.50
2018-12-27T13:29:16.702Z,97879.03
2018-12-27T13:34:24.976Z,97868.11
2018-12-27T13:39:38.948Z,97872.67
2018-12-27T13:44:52.428Z,97872.49
2018-12-27T13:49:59.999Z,97872.50
2018-12-27T13:55:18.713Z,97865.68
2018-12-27T14:00:32.707Z,97867.83
2018-12-27T14:05:40.443Z,97868.73
2018-12-27T14:10:49.193Z,97861.87
2018-12-27T14:15:56.498Z,97862.50
2018-12-27T14:20:51.116Z,97867.61
2018-12-27T14:32:03.730Z,97874.70
2018-12-27T14:36:58.378Z,97861.93
2018-12-27T14:42:21.892Z,97871.82
2018-12-27T14:47:28.472Z,97870.90
2018-12-27T15:04:19.146Z,97871.64
2018-12-27T15:09:30.558Z,97869.36
2018-12-27T15:14:25.257Z,97872.98
2018-12-27T15:19:19.879Z,97872.79
2018-12-27T15:24:14.505Z,97869.63
2018-12-27T15:29:09.139Z,97860.09
2018-12-27T15:34:03.748Z,97858.79
2018-12-27T15:38:58.384Z,97857.01
2018-12-27T15:43:52.976Z,97860.09
2018-12-27T15:48:47.585Z,97859.63
2018-12-27T15:53:42.280Z,97858.83
2018-12-27T15:58:36.902Z,97851.10
2018-12-27T16:03:31.532Z,97864.12
2018-12-27T16:08:26.128Z,97862.52
2018-12-27T16:13:41.607Z,97866.66
2018-12-27T16:18:55.612Z,97864.61
2018-12-27T16:29:45.964Z,97855.03
2018-12-27T16:41:03.298Z,97861.88
2018-12-27T16:46:10.553Z,97862.03
2018-12-27T16:51:27.369Z,97865.98
2018-12-27T16:56:41.750Z,97868.91
2018-12-27T17:01:36.368Z,97872.11
2018-12-27T17:06:50.347Z,97880.61
2018-12-27T17:12:04.353Z,97887.90
2018-12-27T17:17:11.757Z,97891.90
2018-12-27T17:28:28.368Z,97878.11
2018-12-27T17:33:36.710Z,97881.80
2018-12-27T17:39:26.462Z,97879.67
2018-12-27T17:44:34.696Z,97890.80
2018-12-27T17:55:37.867Z,97893.34
2018-12-27T18:00:51.243Z,97889.84
2018-12-27T18:06:23.412Z,97878.59
2018-12-27T18:11:18.037Z,97884.48
2018-12-27T18:16:50.026Z,97885.48
2018-12-27T18:22:04.013Z,97881.66
2018-12-27T18:27:11.291Z,97884.11
2018-12-27T18:32:43.011Z,97889.66
2018-12-27T18:37:49.556Z,97886.70
2018-12-27T18:42:56.165Z,97898.37
2018-12-27T18:47:50.799Z,97900.77
2018-12-27T18:59:10.784Z,97907.23
2018-12-27T19:04:24.801Z,97904.80
2018-12-27T19:09:37.679Z,97901.05
2018-12-27T19:14:45.252Z,97900.96
2018-12-27T19:20:36.717Z,97902.11
2018-12-27T19:25:44.471Z,97901.95
2018-12-27T19:30:58.520Z,97900.81
2018-12-27T19:36:06.119Z,97911.53
2018-12-27T19:41:00.755Z,97907.55
2018-12-27T19:46:14.742Z,97906.09
2018-12-27T19:51:22.767Z,97908.76
2018-12-27T19:56:36.761Z,97908.72
2018-12-27T20:01:44.742Z,97909.25
2018-12-27T20:06:58.719Z,97909.25
2018-12-27T20:11:53.422Z,97919.18
2018-12-27T20:18:03.666Z,97921.34
2018-12-27T20:23:17.311Z,97915.95
2018-12-27T20:28:24.906Z,97921.56
2018-12-27T20:33:38.896Z,97922.34
2018-12-27T20:38:48.079Z,97922.27
2018-12-27T20:43:54.852Z,97912.67
2018-12-27T20:49:26.893Z,97915.41
2018-12-27T20:54:34.914Z,97918.95
2018-12-27T21:00:35.757Z,97922.03
2018-12-27T21:06:07.486Z,97912.56
2018-12-27T21:11:15.187Z,97920.63
2018-12-27T21:16:29.232Z,97918.88
2018-12-27T21:21:36.906Z,97927.40
2018-12-27T21:26:50.945Z,97922.98
2018-12-27T21:31:58.211Z,97916.47
2018-12-27T21:37:12.206Z,97922.14
2018-12-27T21:42:21.090Z,97921.72
2018-12-27T21:47:35.198Z,97921.30
2018-12-27T21:52:42.630Z,97917.38
2018-12-27T21:57:56.640Z,97915.59
2018-12-27T22:03:13.131Z,97912.70
2018-12-27T22:08:28.298Z,97906.43
2018-12-27T22:13:37.205Z,97910.98
2018-12-27T22:18:45.300Z,97913.41
2018-12-27T22:23:59.277Z,97915.20
2018-12-27T22:29:06.756Z,97912.86
2018-12-27T22:34:20.829Z,97907.13
2018-12-27T22:39:28.516Z,97914.98
2018-12-27T22:44:35.744Z,97901.20
2018-12-27T22:49:49.476Z,97898.41
2018-12-27T22:55:06.015Z,97898.91
2018-12-27T23:00:17.283Z,97900.90
2018-12-27T23:05:25.189Z,97888.54
2018-12-27T23:10:39.158Z,97891.50
2018-12-27T23:15:45.972Z,97886.20
2018-12-27T23:20:59.953Z,97879.68
2018-12-27T23:26:13.404Z,97884.45
2018-12-27T23:31:21.459Z,97886.42
2018-12-27T23:36:35.443Z,97880.17
2018-12-27T23:41:30.076Z,97872.55
2018-12-27T23:47:40.371Z,97885.20
2018-12-27T23:52:54.354Z,97882.89
2018-12-27T23:57:48.989Z,97884.38
